Time;durP1;ratioP1;P1;durP2;ratioP2;P2;SDS_P1;SDS_P2;PMS_P1;PMS_P2;Temp;Humidity;BMP_temperature;BMP_pressure;BME280_temperature;BME280_humidity;BME280_pressure;Samples;Min_cycle;Max_cycle;Signal;HPM_P1;HPM_P2
2022/10/19 00:01:44;;;;;;;9.60;6.07;;;;;;;17.94;61.77;98421.16;5053820;28;20235;-73
2022/10/19 00:04:10;;;;;;;13.80;6.73;;;;;;;17.80;61.96;98422.66;5051595;28;20430;-73
2022/10/19 00:06:35;;;;;;;8.13;6.53;;;;;;;17.78;62.21;98409.59;5053604;28;20637;-74
2022/10/19 00:09:07;;;;;;;9.83;6.20;;;;;;;17.82;62.37;98407.41;5055216;28;20526;-73
2022/10/19 00:11:35;;;;;;;8.50;6.07;;;;;;;17.85;62.02;98398.28;5050032;28;20194;-74
2022/10/19 00:14:01;;;;;;;11.60;7.43;;;;;;;17.74;62.83;98404.78;5052722;28;20995;-74
2022/10/19 00:16:29;;;;;;;12.10;7.57;;;;;;;17.76;63.28;98406.28;5053404;28;20436;-73
2022/10/19 00:18:56;;;;;;;11.67;5.87;;;;;;;17.80;62.83;98407.59;5051803;28;20429;-72
2022/10/19 00:21:21;;;;;;;9.60;6.73;;;;;;;17.73;62.49;98405.78;5059635;28;20472;-73
2022/10/19 00:23:47;;;;;;;10.00;6.70;;;;;;;17.73;62.28;98398.66;5068051;28;20420;-73
2022/10/19 00:26:12;;;;;;;9.60;6.43;;;;;;;17.73;62.05;98392.53;5064665;28;20186;-72
2022/10/19 00:28:38;;;;;;;10.97;6.37;;;;;;;17.70;62.18;98398.16;5057615;28;20348;-72
2022/10/19 00:31:09;;;;;;;9.33;5.70;;;;;;;17.68;62.20;98397.50;5064678;28;20175;-73
2022/10/19 00:33:35;;;;;;;17.83;6.27;;;;;;;17.63;62.17;98400.66;5054861;28;20491;-72
2022/10/19 00:36:01;;;;;;;11.73;5.60;;;;;;;17.61;62.10;98402.66;5062228;28;20452;-71
2022/10/19 00:38:26;;;;;;;9.13;5.80;;;;;;;17.60;62.04;98399.19;5057222;28;20729;-72
2022/10/19 00:40:52;;;;;;;8.20;6.03;;;;;;;17.61;61.88;98400.84;5061474;28;20703;-72
2022/10/19 00:43:23;;;;;;;13.77;5.80;;;;;;;17.50;61.79;98409.16;5062616;28;20186;-73
2022/10/19 00:45:49;;;;;;;8.53;6.07;;;;;;;17.46;61.86;98400.69;5064909;28;20179;-74
2022/10/19 00:48:18;;;;;;;8.03;6.47;;;;;;;17.44;62.04;98407.16;5050438;28;20461;-73
2022/10/19 00:50:45;;;;;;;19.07;6.80;;;;;;;17.41;62.29;98404.81;5063391;28;20425;-73
2022/10/19 00:53:10;;;;;;;8.40;6.20;;;;;;;17.45;61.86;98404.31;5065218;28;20428;-74
2022/10/19 00:55:37;;;;;;;12.70;6.20;;;;;;;17.47;61.95;98404.97;5058787;28;20435;-74
2022/10/19 00:58:02;;;;;;;11.73;6.57;;;;;;;17.40;61.81;98401.34;5055902;28;20229;-73
2022/10/19 01:00:28;;;;;;;11.30;5.93;;;;;;;17.38;61.92;98407.81;5065927;28;20468;-73
2022/10/19 01:02:54;;;;;;;11.27;6.57;;;;;;;17.40;61.88;98413.75;5067460;28;20194;-72
2022/10/19 01:05:19;;;;;;;7.00;5.17;;;;;;;17.36;61.73;98415.94;5061832;28;20188;-71
2022/10/19 01:07:45;;;;;;;13.20;6.17;;;;;;;17.36;61.92;98405.31;5021362;28;20741;-73
2022/10/19 01:10:10;;;;;;;10.07;6.27;;;;;;;17.31;61.91;98405.81;5064775;28;20175;-73
2022/10/19 01:12:50;;;;;;;7.70;6.83;;;;;;;17.26;62.02;98405.53;5061011;28;20235;-72
2022/10/19 01:15:27;;;;;;;9.87;5.80;;;;;;;17.33;62.04;98408.31;5057716;28;20186;-72
2022/10/19 01:18:13;;;;;;;14.30;6.67;;;;;;;17.25;62.12;98403.00;5045186;28;20501;-72
2022/10/19 01:21:19;;;;;;;10.97;7.00;;;;;;;17.23;62.44;98400.53;5032185;28;20456;-73
2022/10/19 01:24:12;;;;;;;9.70;6.27;;;;;;;17.27;62.92;98399.19;5055642;28;20491;-73
2022/10/19 01:27:10;;;;;;;11.20;5.80;;;;;;;17.34;62.74;98394.91;5061402;28;20840;-72
2022/10/19 01:29:35;;;;;;;8.90;6.07;;;;;;;17.37;62.40;98401.69;5048186;28;20430;-73
2022/10/19 01:32:08;;;;;;;8.20;6.37;;;;;;;17.39;62.63;98393.59;5051620;28;20433;-72
2022/10/19 01:34:38;;;;;;;16.17;6.17;;;;;;;17.44;62.71;98391.25;5050053;28;20203;-73
2022/10/19 01:37:21;;;;;;;11.00;5.80;;;;;;;17.42;62.96;98387.94;5049714;28;20456;-73
2022/10/19 01:40:04;;;;;;;8.20;5.70;;;;;;;17.38;62.83;98386.63;5040676;28;20523;-72
2022/10/19 01:42:48;;;;;;;12.43;6.13;;;;;;;17.38;63.04;98379.50;5051411;28;20782;-72
2022/10/19 01:45:18;;;;;;;10.97;7.90;;;;;;;17.45;63.52;98379.66;5014370;28;20462;-72
2022/10/19 01:47:46;;;;;;;13.77;8.70;;;;;;;17.54;63.82;98381.28;5048241;28;20814;-73
2022/10/19 01:50:18;;;;;;;11.60;7.90;;;;;;;17.62;64.51;98372.50;5043372;28;20772;-73
2022/10/19 01:52:43;;;;;;;19.33;8.63;;;;;;;17.71;64.66;98373.31;5049348;28;20426;-73
2022/10/19 01:55:12;;;;;;;13.07;8.20;;;;;;;17.73;64.48;98380.09;5048918;28;20434;-74
2022/10/19 01:57:41;;;;;;;10.53;7.40;;;;;;;17.74;64.28;98373.78;5048333;28;20282;-72
2022/10/19 02:00:07;;;;;;;13.83;7.50;;;;;;;17.73;64.38;98373.97;5049371;28;20485;-73
2022/10/19 02:02:34;;;;;;;9.57;6.27;;;;;;;17.78;64.46;98376.94;5050492;28;20430;-73
2022/10/19 02:05:00;;;;;;;10.30;7.23;;;;;;;17.79;64.34;98376.78;5032292;28;20521;-73
2022/10/19 02:07:26;;;;;;;18.73;7.10;;;;;;;17.75;64.26;98371.97;5047889;28;20478;-73
2022/10/19 02:09:51;;;;;;;8.20;7.20;;;;;;;17.75;64.20;98374.63;5050420;28;20422;-71
2022/10/19 02:12:17;;;;;;;16.50;8.07;;;;;;;17.76;64.40;98373.63;5048522;28;20203;-71
2022/10/19 02:14:45;;;;;;;18.20;8.47;;;;;;;17.68;65.11;98374.50;5032063;28;20673;-72
2022/10/19 02:17:14;;;;;;;19.87;9.70;;;;;;;17.74;65.57;98380.94;5047620;28;20886;-72
2022/10/19 02:19:41;;;;;;;30.63;11.77;;;;;;;17.84;66.29;98370.13;5045579;28;20469;-72
2022/10/19 02:22:07;;;;;;;28.27;12.03;;;;;;;17.86;66.77;98368.13;5050010;28;20901;-73
2022/10/19 02:24:33;;;;;;;31.90;12.80;;;;;;;17.89;67.55;98363.31;5049885;28;20430;-74
2022/10/19 02:27:00;;;;;;;30.63;12.03;;;;;;;17.93;67.80;98354.00;5049118;28;20437;-73
2022/10/19 02:29:26;;;;;;;21.87;11.73;;;;;;;17.99;67.65;98349.06;5048074;28;20559;-72
2022/10/19 02:31:52;;;;;;;25.47;10.30;;;;;;;17.99;67.62;98349.06;5050050;28;20429;-72
2022/10/19 02:34:17;;;;;;;26.50;10.03;;;;;;;18.03;67.56;98347.69;5048231;28;20269;-71
2022/10/19 02:36:42;;;;;;;30.00;10.17;;;;;;;18.06;67.42;98344.72;5047924;28;20194;-73
2022/10/19 02:39:08;;;;;;;29.87;10.70;;;;;;;18.09;67.64;98354.97;5048113;28;20183;-71
2022/10/19 02:41:38;;;;;;;36.13;11.90;;;;;;;18.04;67.84;98352.00;5050696;28;20237;-73
2022/10/19 02:44:33;;;;;;;35.90;11.33;;;;;;;18.03;68.07;98347.69;5048096;28;20195;-72
2022/10/19 02:47:29;;;;;;;47.53;13.77;;;;;;;18.07;68.22;98355.16;5045378;28;20522;-71
2022/10/19 02:49:54;;;;;;;31.43;11.70;;;;;;;18.09;68.33;98349.69;5027350;28;20529;-72
2022/10/19 02:52:20;;;;;;;45.57;13.60;;;;;;;18.09;68.46;98353.16;5049500;28;20555;-72
2022/10/19 02:54:45;;;;;;;34.73;12.60;;;;;;;18.09;68.54;98344.38;5049682;28;20186;-75
2022/10/19 02:57:22;;;;;;;45.27;14.63;;;;;;;18.11;68.73;98339.72;5047299;28;20207;-74
2022/10/19 02:59:48;;;;;;;83.83;16.07;;;;;;;17.96;69.34;98342.22;5044378;28;20295;-74
2022/10/19 03:02:15;;;;;;;61.10;15.77;;;;;;;17.89;69.50;98336.81;5047918;28;20509;-73
2022/10/19 03:04:40;;;;;;;45.90;15.43;;;;;;;17.86;69.91;98333.66;5042095;28;20262;-73
2022/10/19 03:07:07;;;;;;;40.73;16.33;;;;;;;17.94;70.27;98331.81;5048260;28;20549;-73
2022/10/19 03:09:33;;;;;;;36.17;16.63;;;;;;;18.03;70.38;98337.09;5044621;28;20175;-72
2022/10/19 03:11:58;;;;;;;32.23;15.67;;;;;;;18.07;70.56;98338.41;5049780;28;20838;-73
2022/10/19 03:14:24;;;;;;;45.63;19.03;;;;;;;18.06;70.44;98328.78;5046711;28;20298;-72
2022/10/19 03:16:49;;;;;;;38.97;18.20;;;;;;;18.08;70.47;98324.16;5049226;28;20234;-72
2022/10/19 03:19:14;;;;;;;35.13;17.53;;;;;;;18.12;70.46;98325.47;5049501;28;20273;-73
2022/10/19 03:21:40;;;;;;;44.43;17.97;;;;;;;18.12;70.39;98317.50;5053259;28;20210;-73
2022/10/19 03:24:05;;;;;;;44.17;21.50;;;;;;;18.17;70.39;98316.97;5051470;28;20186;-72
2022/10/19 03:26:31;;;;;;;38.00;17.73;;;;;;;18.20;70.32;98320.09;5052420;28;20597;-73
2022/10/19 03:28:56;;;;;;;45.00;19.87;;;;;;;18.21;70.28;98310.34;5053275;28;20262;-73
2022/10/19 03:31:22;;;;;;;41.37;19.50;;;;;;;18.22;70.41;98319.91;5052846;28;20244;-72
2022/10/19 03:33:47;;;;;;;45.43;18.93;;;;;;;18.20;70.66;98311.34;5051584;28;20179;-73
2022/10/19 03:36:23;;;;;;;42.23;18.83;;;;;;;18.21;70.26;98313.81;5052534;28;20663;-71
2022/10/19 03:38:54;;;;;;;39.13;19.03;;;;;;;18.21;70.36;98313.81;5052672;28;20261;-72
2022/10/19 03:41:20;;;;;;;43.47;19.47;;;;;;;18.19;70.29;98321.09;5053897;28;20465;-73
2022/10/19 03:43:46;;;;;;;47.33;21.33;;;;;;;18.18;70.21;98316.78;5053000;28;20456;-72
2022/10/19 03:46:11;;;;;;;51.67;21.37;;;;;;;18.16;70.41;98305.53;5042370;28;20933;-73
2022/10/19 03:48:37;;;;;;;43.30;18.90;;;;;;;18.13;70.43;98308.56;5045440;28;20206;-73
2022/10/19 03:51:05;;;;;;;51.87;16.53;;;;;;;18.15;70.18;98314.47;5068480;28;20612;-71
2022/10/19 03:53:31;;;;;;;34.53;14.37;;;;;;;18.11;70.05;98316.66;5068531;28;20193;-72
2022/10/19 03:56:07;;;;;;;36.23;16.67;;;;;;;18.12;69.96;98317.50;5060713;28;20442;-73
2022/10/19 03:58:34;;;;;;;40.73;18.57;;;;;;;18.15;69.73;98317.13;5055279;28;20293;-75
2022/10/19 04:00:59;;;;;;;39.17;19.10;;;;;;;18.19;70.08;98310.50;5054618;28;20540;-73
2022/10/19 04:03:25;;;;;;;42.60;20.67;;;;;;;18.24;70.23;98313.47;5070035;28;20435;-73
2022/10/19 04:05:51;;;;;;;39.90;20.97;;;;;;;18.25;70.21;98308.97;5057270;28;20659;-73
2022/10/19 04:08:16;;;;;;;43.13;22.40;;;;;;;18.28;70.22;98313.94;5053592;28;20577;-72
2022/10/19 04:10:42;;;;;;;43.93;20.17;;;;;;;18.33;70.21;98310.75;5069428;28;20214;-73
2022/10/19 04:13:07;;;;;;;42.97;18.90;;;;;;;18.33;70.24;98314.25;5062190;28;20207;-72
2022/10/19 04:15:33;;;;;;;44.33;20.23;;;;;;;18.32;70.30;98315.25;5061802;28;20707;-72
2022/10/19 04:17:58;;;;;;;44.40;19.80;;;;;;;18.34;70.13;98305.25;5039379;28;20290;-72
2022/10/19 04:20:23;;;;;;;41.80;19.77;;;;;;;18.31;70.23;98307.44;5070463;28;20217;-72
2022/10/19 04:22:51;;;;;;;41.70;18.60;;;;;;;18.32;70.27;98301.13;5054401;28;20179;-72
2022/10/19 04:25:17;;;;;;;46.07;20.13;;;;;;;18.34;70.11;98297.28;5062195;28;20201;-72
2022/10/19 04:27:42;;;;;;;40.37;18.40;;;;;;;18.34;70.30;98305.25;5067047;28;20428;-72
2022/10/19 04:30:08;;;;;;;42.60;19.90;;;;;;;18.34;70.22;98305.25;5062141;28;20555;-73
2022/10/19 04:32:33;;;;;;;42.07;18.67;;;;;;;18.38;70.22;98303.09;5057060;28;20269;-73
2022/10/19 04:34:59;;;;;;;38.10;19.50;;;;;;;18.36;70.25;98305.09;5063028;28;20311;-73
2022/10/19 04:37:24;;;;;;;36.73;20.00;;;;;;;18.37;70.38;98301.44;5061241;28;20297;-72
2022/10/19 04:39:49;;;;;;;43.73;18.10;;;;;;;18.41;70.54;98302.72;5065749;28;20238;-72
2022/10/19 04:42:15;;;;;;;40.47;19.50;;;;;;;18.43;70.36;98303.38;5054187;28;20678;-73
2022/10/19 04:44:40;;;;;;;35.27;18.83;;;;;;;18.42;70.40;98305.22;5068753;28;20683;-72
2022/10/19 04:47:06;;;;;;;41.00;19.43;;;;;;;18.42;70.47;98299.91;5054369;28;20633;-73
2022/10/19 04:49:32;;;;;;;39.40;19.40;;;;;;;18.45;70.70;98303.22;5058231;28;20250;-73
2022/10/19 04:51:57;;;;;;;32.87;17.30;;;;;;;18.45;70.33;98292.59;5063012;28;20269;-72
2022/10/19 04:54:23;;;;;;;33.53;17.70;;;;;;;18.40;70.27;98299.25;5061568;28;20329;-73
2022/10/19 04:56:48;;;;;;;35.13;16.57;;;;;;;18.44;70.26;98294.41;5054201;28;20217;-73
2022/10/19 04:59:14;;;;;;;29.27;18.00;;;;;;;18.44;70.26;98297.06;5061736;28;20646;-73
2022/10/19 05:01:40;;;;;;;32.37;17.73;;;;;;;18.44;70.18;98291.75;5069718;28;20186;-73
2022/10/19 05:04:05;;;;;;;33.93;17.47;;;;;;;18.42;70.20;98296.41;5060136;28;20272;-72
2022/10/19 05:06:31;;;;;;;30.00;18.23;;;;;;;18.42;70.35;98296.41;5054675;28;20436;-73
2022/10/19 05:08:56;;;;;;;29.20;17.23;;;;;;;18.44;70.26;98296.25;5051831;28;20182;-72
2022/10/19 05:11:22;;;;;;;28.43;18.10;;;;;;;18.42;70.41;98299.06;5065322;28;20194;-73
2022/10/19 05:13:48;;;;;;;33.57;15.90;;;;;;;18.39;70.25;98299.44;5057909;28;20262;-73
2022/10/19 05:16:16;;;;;;;29.20;17.60;;;;;;;18.42;70.22;98299.06;5065166;28;20417;-73
2022/10/19 05:18:42;;;;;;;28.97;18.10;;;;;;;18.43;70.10;98295.41;5059171;28;20185;-73
2022/10/19 05:21:10;;;;;;;28.90;18.43;;;;;;;18.46;69.96;98300.38;5058176;28;20548;-72
2022/10/19 05:23:36;;;;;;;28.93;16.97;;;;;;;18.46;70.05;98295.06;5049657;28;20657;-71
2022/10/19 05:26:12;;;;;;;26.03;17.83;;;;;;;18.46;69.93;98295.06;5057906;28;20421;-72
2022/10/19 05:28:38;;;;;;;23.90;16.77;;;;;;;18.47;69.93;98296.72;5051859;28;20616;-73
2022/10/19 05:31:24;;;;;;;28.40;17.20;;;;;;;18.41;70.06;98298.25;5058376;28;20437;-73
2022/10/19 05:33:49;;;;;;;26.20;15.87;;;;;;;18.43;70.11;98295.41;5056676;28;20246;-72
2022/10/19 05:36:24;;;;;;;26.00;16.07;;;;;;;18.43;70.05;98300.72;5062284;28;20528;-73
2022/10/19 05:38:51;;;;;;;28.43;15.67;;;;;;;18.42;70.08;98291.13;5064280;28;20241;-73
2022/10/19 05:41:17;;;;;;;29.03;17.17;;;;;;;18.43;69.76;98295.41;5056212;28;20973;-73
2022/10/19 05:43:43;;;;;;;29.73;18.90;;;;;;;18.39;69.94;98294.13;5056274;28;20458;-73
2022/10/19 05:46:10;;;;;;;31.07;17.70;;;;;;;18.33;70.10;98295.66;5044884;28;20198;-73
2022/10/19 05:48:36;;;;;;;36.70;18.03;;;;;;;18.25;70.53;98290.41;5040858;28;20251;-73
2022/10/19 05:51:04;;;;;;;26.93;16.30;;;;;;;18.20;70.65;98292.75;5050196;28;20446;-74
2022/10/19 05:53:30;;;;;;;26.77;17.80;;;;;;;18.24;70.29;98294.88;5050138;28;20916;-73
2022/10/19 05:55:56;;;;;;;29.93;18.67;;;;;;;18.25;70.30;98293.88;5046026;28;20526;-74
2022/10/19 05:58:21;;;;;;;24.97;17.87;;;;;;;18.18;70.37;98303.53;5045784;28;20580;-74
2022/10/19 06:00:51;;;;;;;22.70;16.83;;;;;;;18.21;70.19;98308.50;5045726;28;20210;-73
2022/10/19 06:03:17;;;;;;;25.80;17.90;;;;;;;18.19;70.23;98299.88;5050010;28;20265;-72
2022/10/19 06:05:42;;;;;;;24.37;18.87;;;;;;;18.22;70.13;98306.66;5050365;28;20421;-74
2022/10/19 06:08:08;;;;;;;23.90;18.87;;;;;;;18.14;69.84;98309.38;5041703;28;20195;-75
2022/10/19 06:10:33;;;;;;;26.10;18.17;;;;;;;18.08;70.20;98313.53;5050546;28;20609;-71
2022/10/19 06:12:59;;;;;;;20.40;16.53;;;;;;;18.13;70.36;98315.66;5046213;28;20257;-72
2022/10/19 06:15:24;;;;;;;29.60;19.30;;;;;;;18.14;70.32;98315.50;5050179;28;20231;-71
2022/10/19 06:17:50;;;;;;;26.90;17.97;;;;;;;18.15;70.58;98313.66;5044563;28;20195;-75
2022/10/19 06:20:15;;;;;;;25.03;17.80;;;;;;;18.15;70.38;98309.19;5046290;28;20285;-75
2022/10/19 06:22:41;;;;;;;31.30;18.70;;;;;;;18.15;70.30;98314.47;5033324;28;20708;-74
2022/10/19 06:25:07;;;;;;;21.57;15.93;;;;;;;18.14;70.38;98304.91;5031656;28;20182;-74
2022/10/19 06:27:32;;;;;;;25.00;18.93;;;;;;;18.17;70.27;98311.69;5037345;28;20441;-73
2022/10/19 06:29:58;;;;;;;23.03;16.37;;;;;;;18.13;70.22;98313.84;5034609;28;20530;-74
2022/10/19 06:32:24;;;;;;;22.23;16.47;;;;;;;18.14;70.16;98312.00;5037409;28;20278;-75
2022/10/19 06:34:49;;;;;;;20.90;16.67;;;;;;;18.19;69.84;98320.28;5034110;28;20252;-75
2022/10/19 06:37:14;;;;;;;21.87;15.90;;;;;;;18.07;69.72;98325.16;5037634;28;20282;-75
2022/10/19 06:39:40;;;;;;;23.13;17.00;;;;;;;18.05;69.83;98335.09;5034636;28;20217;-75
2022/10/19 06:42:05;;;;;;;26.40;16.50;;;;;;;18.01;70.34;98329.31;5037829;28;20313;-75
2022/10/19 06:44:31;;;;;;;20.50;16.50;;;;;;;18.03;69.87;98331.78;5047783;28;20229;-75
2022/10/19 06:46:56;;;;;;;22.80;15.27;;;;;;;18.00;69.96;98337.47;5030846;28;20211;-73
2022/10/19 06:49:22;;;;;;;20.93;15.87;;;;;;;18.00;70.35;98332.16;5042034;28;20187;-73
2022/10/19 06:51:47;;;;;;;19.60;15.27;;;;;;;18.08;70.26;98327.63;5040409;28;20187;-74
2022/10/19 06:54:13;;;;;;;18.70;14.63;;;;;;;18.11;70.06;98329.13;5037522;28;20310;-74
2022/10/19 06:56:38;;;;;;;19.57;15.20;;;;;;;18.13;69.85;98334.25;5040222;28;20565;-74
2022/10/19 06:59:04;;;;;;;21.70;14.83;;;;;;;18.14;69.88;98333.25;5036662;28;20219;-76
2022/10/19 07:01:29;;;;;;;19.17;14.77;;;;;;;18.14;69.67;98328.78;5038981;28;20670;-72
2022/10/19 07:03:54;;;;;;;18.83;14.57;;;;;;;18.09;69.79;98331.09;5044787;28;20214;-73
2022/10/19 07:06:21;;;;;;;19.83;16.00;;;;;;;18.13;69.92;98332.44;5045650;28;20188;-72
2022/10/19 07:08:47;;;;;;;23.47;16.70;;;;;;;18.17;69.85;98333.72;5041085;28;20231;-71
2022/10/19 07:11:18;;;;;;;20.87;15.60;;;;;;;18.18;69.77;98339.84;5047234;28;20498;-74
2022/10/19 07:13:44;;;;;;;18.93;14.87;;;;;;;18.21;69.68;98335.03;5043461;28;20191;-74
2022/10/19 07:16:12;;;;;;;20.17;16.23;;;;;;;18.07;69.96;98343.72;5038017;28;20569;-73
2022/10/19 07:18:39;;;;;;;20.53;15.37;;;;;;;18.02;70.21;98336.28;5042285;28;20599;-74
2022/10/19 07:21:07;;;;;;;18.50;16.13;;;;;;;18.02;69.81;98336.28;5042555;28;20538;-74
2022/10/19 07:23:34;;;;;;;18.90;15.40;;;;;;;18.05;69.98;98338.59;5046788;28;20503;-74
2022/10/19 07:26:06;;;;;;;22.63;15.70;;;;;;;18.06;70.23;98342.06;5042184;28;20515;-74
2022/10/19 07:28:31;;;;;;;18.67;14.20;;;;;;;18.06;69.97;98334.09;5038033;28;20491;-74
2022/10/19 07:30:57;;;;;;;18.93;14.13;;;;;;;18.04;70.11;98334.28;5041178;28;20934;-75
2022/10/19 07:33:22;;;;;;;17.10;14.63;;;;;;;18.14;70.24;98338.53;5046695;28;20195;-74
2022/10/19 07:35:48;;;;;;;20.53;15.60;;;;;;;18.21;70.16;98335.03;5048634;28;20206;-73
2022/10/19 07:38:16;;;;;;;26.03;14.60;;;;;;;18.27;70.12;98333.50;5040626;28;20279;-75
2022/10/19 07:40:42;;;;;;;22.13;14.70;;;;;;;18.20;69.38;98337.88;5046102;28;20202;-74
2022/10/19 07:43:07;;;;;;;18.03;14.00;;;;;;;18.24;69.94;98334.69;5040235;28;20944;-73
2022/10/19 07:45:33;;;;;;;16.10;12.80;;;;;;;18.26;69.72;98337.16;5045997;28;20282;-73
2022/10/19 07:47:58;;;;;;;15.00;12.40;;;;;;;18.22;69.11;98325.22;5040020;28;20199;-73
2022/10/19 07:50:26;;;;;;;16.03;13.90;;;;;;;18.32;69.37;98340.94;5057649;28;20183;-73
2022/10/19 07:52:51;;;;;;;13.97;12.40;;;;;;;18.34;69.26;98333.63;5045262;28;20265;-73
2022/10/19 07:55:17;;;;;;;16.10;13.03;;;;;;;18.41;69.18;98327.47;5037205;28;20437;-72
2022/10/19 07:57:46;;;;;;;16.90;12.17;;;;;;;18.43;68.73;98335.22;5043943;28;20252;-73
2022/10/19 08:00:12;;;;;;;15.37;12.37;;;;;;;18.45;68.80;98335.88;5040195;28;20675;-72
2022/10/19 08:02:37;;;;;;;16.27;13.30;;;;;;;18.50;68.68;98333.53;5045106;28;20425;-74
2022/10/19 08:05:03;;;;;;;23.37;12.83;;;;;;;18.51;68.56;98335.19;5041490;28;20281;-75
2022/10/19 08:07:32;;;;;;;13.37;11.97;;;;;;;18.59;68.72;98336.94;5037939;28;20198;-73
2022/10/19 08:09:57;;;;;;;15.50;12.23;;;;;;;18.67;68.28;98339.56;5048686;28;20555;-74
2022/10/19 08:12:23;;;;;;;16.43;12.63;;;;;;;18.68;67.84;98340.38;5052865;28;20509;-73
2022/10/19 08:14:48;;;;;;;17.70;12.47;;;;;;;18.39;67.48;98339.25;5052432;28;20278;-72
2022/10/19 08:17:16;;;;;;;17.20;12.13;;;;;;;18.56;68.16;98338.13;5051852;28;20286;-75
2022/10/19 08:19:43;;;;;;;21.90;12.77;;;;;;;18.68;67.85;98329.75;5052949;28;20234;-72
2022/10/19 08:22:08;;;;;;;18.43;11.97;;;;;;;18.74;67.89;98329.06;5052017;28;20497;-75
2022/10/19 08:24:34;;;;;;;19.43;12.77;;;;;;;18.76;67.31;98324.41;5052838;28;20579;-72
2022/10/19 08:27:01;;;;;;;17.13;13.10;;;;;;;18.81;67.26;98327.34;5052296;28;20674;-74
2022/10/19 08:29:27;;;;;;;16.53;12.53;;;;;;;18.86;67.40;98321.50;5052539;28;20185;-75
2022/10/19 08:31:52;;;;;;;13.27;11.87;;;;;;;18.92;67.30;98322.59;5052858;28;20941;-73
2022/10/19 08:34:18;;;;;;;15.97;12.00;;;;;;;18.86;66.43;98326.81;5051023;28;20189;-73
2022/10/19 08:36:44;;;;;;;21.90;13.60;;;;;;;18.87;66.84;98325.81;5051709;28;20271;-72
2022/10/19 08:39:11;;;;;;;14.50;12.23;;;;;;;18.92;66.21;98327.91;5051895;28;20185;-74
2022/10/19 08:41:39;;;;;;;20.07;14.23;;;;;;;18.93;66.29;98333.06;5053275;28;20670;-73
2022/10/19 08:44:35;;;;;;;16.77;12.63;;;;;;;18.90;66.18;98333.41;5052387;28;20433;-74
2022/10/19 08:47:13;;;;;;;14.23;11.80;;;;;;;18.87;66.06;98331.94;5048053;28;20442;-73
2022/10/19 08:49:38;;;;;;;16.83;12.50;;;;;;;18.86;66.08;98329.47;5045612;28;20517;-73
2022/10/19 08:52:16;;;;;;;17.57;12.40;;;;;;;18.81;65.80;98334.50;5051839;28;20790;-74
2022/10/19 08:54:54;;;;;;;15.63;11.57;;;;;;;18.78;65.85;98330.34;5045926;28;20657;-74
2022/10/19 08:57:27;;;;;;;13.60;12.20;;;;;;;18.78;66.29;98330.34;5047951;28;20453;-74
2022/10/19 09:00:06;;;;;;;16.17;11.73;;;;;;;18.87;66.37;98331.94;5051752;28;20519;-74
2022/10/19 09:02:37;;;;;;;17.30;11.60;;;;;;;18.90;65.95;98336.06;5051225;28;20951;-73
2022/10/19 09:05:14;;;;;;;20.40;11.73;;;;;;;18.96;66.11;98332.75;5052163;28;20857;-72
2022/10/19 09:07:44;;;;;;;23.60;11.70;;;;;;;19.02;66.06;98321.41;5045735;28;20474;-74
2022/10/19 09:10:18;;;;;;;14.47;10.97;;;;;;;19.03;65.92;98325.69;5048757;28;20425;-74
2022/10/19 09:12:50;;;;;;;12.80;10.17;;;;;;;19.02;65.61;98317.94;5050747;28;20426;-74
2022/10/19 09:15:21;;;;;;;10.73;9.20;;;;;;;19.01;65.31;98318.94;5050757;28;20508;-74
2022/10/19 09:17:46;;;;;;;11.03;9.83;;;;;;;19.02;65.26;98317.94;5013442;28;20446;-72
2022/10/19 09:20:14;;;;;;;13.30;9.60;;;;;;;19.01;64.81;98309.13;5049211;28;20459;-74
2022/10/19 09:22:41;;;;;;;10.60;8.10;;;;;;;19.04;64.79;98318.53;5051640;28;20186;-73
2022/10/19 09:25:19;;;;;;;8.10;7.17;;;;;;;18.97;64.35;98307.00;5051534;28;20414;-74
2022/10/19 09:27:48;;;;;;;7.93;6.87;;;;;;;19.03;64.11;98309.75;5049041;28;20456;-74
2022/10/19 09:30:21;;;;;;;8.97;7.50;;;;;;;19.01;63.81;98316.28;5048393;28;20990;-73
2022/10/19 09:32:55;;;;;;;8.90;7.23;;;;;;;19.03;63.81;98311.56;5051548;28;20502;-74
2022/10/19 09:35:47;;;;;;;7.03;6.33;;;;;;;19.03;63.91;98315.06;5049813;28;20441;-73
2022/10/19 09:38:15;;;;;;;10.13;8.00;;;;;;;19.10;63.62;98307.22;5049154;28;20541;-74
2022/10/19 09:40:41;;;;;;;9.57;7.97;;;;;;;19.07;63.63;98312.88;5050834;28;20484;-74
2022/10/19 09:43:18;;;;;;;8.60;7.57;;;;;;;19.05;63.33;98322.03;5051035;28;20424;-72
2022/10/19 09:46:04;;;;;;;14.03;7.27;;;;;;;18.99;63.80;98313.78;5051060;28;20209;-73
2022/10/19 09:48:32;;;;;;;8.87;7.17;;;;;;;18.99;63.73;98323.59;5047760;28;20492;-74
2022/10/19 09:51:01;;;;;;;7.70;6.90;;;;;;;18.94;63.61;98315.31;5051235;28;20409;-73
2022/10/19 09:53:27;;;;;;;8.03;6.40;;;;;;;18.98;63.71;98313.97;5050892;28;20435;-73
2022/10/19 09:56:04;;;;;;;15.07;6.40;;;;;;;18.93;63.42;98319.78;5048889;28;20480;-73
2022/10/19 09:58:30;;;;;;;7.90;5.90;;;;;;;18.92;63.84;98319.94;5046879;28;20523;-73
2022/10/19 10:00:56;;;;;;;8.73;7.67;;;;;;;18.94;63.88;98317.97;5051757;28;20465;-73
2022/10/19 10:03:25;;;;;;;10.20;6.80;;;;;;;18.92;64.16;98314.63;5050943;28;20244;-73
2022/10/19 10:05:51;;;;;;;14.20;8.50;;;;;;;18.88;64.35;98315.00;5051086;28;20787;-73
2022/10/19 10:08:24;;;;;;;8.00;7.17;;;;;;;18.92;63.71;98314.63;5041094;28;20975;-75
2022/10/19 10:11:05;;;;;;;8.90;7.43;;;;;;;18.90;63.62;98314.00;5047674;28;20475;-73
2022/10/19 10:13:35;;;;;;;6.80;6.10;;;;;;;18.92;63.67;98311.97;5043102;28;20470;-73
2022/10/19 10:16:03;;;;;;;8.10;7.10;;;;;;;18.86;63.65;98309.06;5049168;28;21005;-73
2022/10/19 10:18:28;;;;;;;10.17;5.80;;;;;;;18.83;63.43;98312.06;5048350;28;20442;-73
2022/10/19 10:20:55;;;;;;;6.93;6.23;;;;;;;18.87;63.57;98310.72;5049506;28;20459;-74
2022/10/19 10:23:26;;;;;;;5.70;5.20;;;;;;;18.92;63.32;98309.31;5050725;28;20252;-73
2022/10/19 10:25:55;;;;;;;6.67;5.93;;;;;;;18.92;63.24;98299.53;5042474;28;20461;-76
2022/10/19 10:28:23;;;;;;;4.60;4.20;;;;;;;18.88;62.89;98316.81;5045584;28;20537;-74
2022/10/19 10:30:53;;;;;;;4.20;3.90;;;;;;;18.72;62.92;98320.44;5051391;28;20512;-74
2022/10/19 10:33:25;;;;;;;5.30;4.67;;;;;;;18.86;63.22;98309.06;5049625;28;20476;-74
2022/10/19 10:35:54;;;;;;;4.47;4.07;;;;;;;18.91;63.09;98299.69;5049515;28;20433;-74
2022/10/19 10:38:26;;;;;;;4.17;3.77;;;;;;;18.98;63.17;98308.66;5049474;28;20461;-73
2022/10/19 10:41:10;;;;;;;4.00;3.60;;;;;;;19.11;63.10;98302.72;5033221;28;20538;-73
2022/10/19 10:43:56;;;;;;;4.47;3.50;;;;;;;19.17;63.04;98297.50;5042294;28;20421;-72
2022/10/19 10:46:26;;;;;;;6.10;5.60;;;;;;;19.16;61.97;98290.53;5048414;28;20459;-73
2022/10/19 10:48:57;;;;;;;6.00;5.50;;;;;;;19.19;62.18;98289.38;5050607;28;20425;-73
2022/10/19 10:51:37;;;;;;;6.40;5.80;;;;;;;19.13;62.28;98288.25;5049354;28;20418;-76
2022/10/19 10:54:23;;;;;;;5.90;5.40;;;;;;;19.21;62.41;98286.53;5050470;28;20429;-72
2022/10/19 10:57:15;;;;;;;6.37;5.80;;;;;;;19.18;62.14;98285.88;5049018;28;20437;-73
2022/10/19 10:59:54;;;;;;;8.97;5.23;;;;;;;19.24;62.33;98286.16;5042775;28;20823;-73
2022/10/19 11:02:38;;;;;;;6.60;4.80;;;;;;;19.30;62.63;98280.09;5050898;28;20513;-72
2022/10/19 11:05:27;;;;;;;5.90;5.40;;;;;;;19.34;62.46;98276.09;5050052;28;20418;-73
2022/10/19 11:08:03;;;;;;;7.03;5.40;;;;;;;19.37;62.39;98274.88;5038981;28;20446;-74
2022/10/19 11:10:33;;;;;;;9.63;6.93;;;;;;;19.37;62.65;98267.75;5043864;28;20497;-75
2022/10/19 11:13:11;;;;;;;8.23;7.43;;;;;;;19.39;62.55;98273.72;5048939;28;20425;-75
2022/10/19 11:15:52;;;;;;;6.27;4.90;;;;;;;19.41;62.49;98260.22;5043828;28;20475;-74
2022/10/19 11:18:26;;;;;;;6.90;6.27;;;;;;;19.44;62.21;98257.22;5048040;28;20495;-74
2022/10/19 11:21:10;;;;;;;5.97;5.43;;;;;;;19.44;62.38;98250.06;5050280;28;20441;-73
2022/10/19 11:23:47;;;;;;;5.90;4.37;;;;;;;19.45;62.40;98251.69;5041881;28;20414;-74
2022/10/19 11:26:27;;;;;;;5.27;4.67;;;;;;;19.48;62.13;98240.72;5050087;28;20444;-74
2022/10/19 11:29:35;;;;;;;5.67;4.63;;;;;;;19.53;62.12;98242.00;5046872;28;20429;-72
2022/10/19 11:32:00;;;;;;;5.67;4.70;;;;;;;19.63;62.17;98232.72;5033107;28;20760;-74